Hallsville, New York
Current Conditions -  °F | °C
As of 5:15 PM on Sunday 23 Nov 2014 (Local Time) from KNY0 Reporting Station
Overcast Overcast  
Wind Chill: 44°   Ceiling: 4400
Heat Index: 44°   Visibility: 10mi
Dew Point: 37°   Wind: 3mph
Humidity: 75%   Direction: 60°ENE
Pressure: 30.06"   Gusts: NA
Location:  42.9271°N, 74.711°W
Report Text: KNY0 232215Z AUTO 06003KT 10SM BKN044 BKN065 OVC075 07/03 A3006 RMK AO2 T00670025
Loading
Personal Weather Stations






























Interactive Weather Map New forecast layout! Learn more

10-Day Weather Forecast

Advertisements
Track Severe Weather on mobile